M17 weather

Bolivar Municipal Airport
Bolivar, Missouri, United States

Public forecast

Using degrees Fahrenheit for public forecast. Weather courtesy of forecast.io.

Closest aviation weather report (METAR) to Bolivar Municipal Airport

Closest report is Springfield Branson National Airport, 21.1 nm (39.1 km) S. Retrieved 2020/07/02 18:52 UTC (40 minutes ago):

KSGF 021852Z VRB04KT 10SM FEW030 SCT039 33/26 A2996 RMK AO2 SLP131 T03280256

Closest aviation forecast (TAF) to Bolivar Municipal Airport

Closest forecast is Springfield Branson National Airport, 21.1 nm (39.1 km) S. Retrieved 2020/07/02 18:22 UTC (1 hour ago):

TAF KSGF 021720Z 0218/0318 32004KT P6SM SCT025 BKN120 TEMPO 0218/0220 BKN025 FM022200 02006KT P6SM FEW035 SCT180 FM030100 05006KT P6SM SCT200 FM031100 VRB03KT 5SM BR BKN070 FM031400 VRB03KT P6SM BKN050